createdAt,value
2018-03-23T00:01:21.158Z,21.37
2018-03-23T00:03:49.553Z,31.40
2018-03-23T00:06:18.044Z,23.97
2018-03-23T00:08:46.719Z,29.97
2018-03-23T00:11:15.751Z,27.67
2018-03-23T00:13:44.017Z,33.37
2018-03-23T00:16:13.057Z,26.70
2018-03-23T00:18:41.322Z,34.30
2018-03-23T00:21:09.584Z,26.93
2018-03-23T00:23:37.855Z,29.73
2018-03-23T00:26:06.127Z,28.50
2018-03-23T00:28:34.414Z,30.93
2018-03-23T00:31:02.716Z,32.87
2018-03-23T00:33:30.970Z,26.03
2018-03-23T00:35:59.246Z,34.63
2018-03-23T00:38:27.512Z,32.80
2018-03-23T00:40:55.789Z,34.43
2018-03-23T00:43:24.069Z,35.10
2018-03-23T00:45:52.345Z,32.30
2018-03-23T00:48:20.627Z,33.90
2018-03-23T00:50:48.892Z,30.57
2018-03-23T00:53:17.163Z,32.70
2018-03-23T00:55:45.451Z,37.37
2018-03-23T00:58:13.719Z,30.13
2018-03-23T01:00:42.019Z,37.50
2018-03-23T01:03:10.291Z,36.60
2018-03-23T01:05:38.585Z,32.27
2018-03-23T01:08:07.610Z,40.27
2018-03-23T01:10:35.893Z,34.40
2018-03-23T01:13:05.056Z,33.77
2018-03-23T01:15:33.342Z,34.83
2018-03-23T01:18:01.624Z,34.50
2018-03-23T01:20:29.889Z,30.37
2018-03-23T01:22:58.165Z,29.73
2018-03-23T01:25:26.424Z,30.03
2018-03-23T01:27:54.695Z,31.63
2018-03-23T01:30:23.097Z,32.43
2018-03-23T01:32:51.371Z,33.00
2018-03-23T01:35:19.626Z,29.30
2018-03-23T01:37:47.890Z,31.33
2018-03-23T01:40:16.142Z,34.20
2018-03-23T01:42:44.415Z,29.80
2018-03-23T01:45:13.443Z,37.93
2018-03-23T01:47:41.749Z,33.70
2018-03-23T01:50:09.993Z,32.30
2018-03-23T01:52:38.261Z,34.03
2018-03-23T01:55:06.543Z,35.77
2018-03-23T01:57:34.817Z,34.07
2018-03-23T02:00:03.112Z,30.30
2018-03-23T02:02:31.403Z,35.13
2018-03-23T02:04:59.673Z,14.33
2018-03-23T02:07:27.928Z,30.43
2018-03-23T02:09:56.227Z,36.13
2018-03-23T02:12:25.275Z,29.50
2018-03-23T02:14:53.570Z,38.93
2018-03-23T02:17:21.833Z,36.23
2018-03-23T02:19:50.099Z,36.20
2018-03-23T02:22:19.121Z,34.93
2018-03-23T02:24:47.437Z,36.80
2018-03-23T02:27:15.694Z,32.43
2018-03-23T02:29:43.973Z,35.47
2018-03-23T02:32:12.245Z,35.03
2018-03-23T02:34:40.514Z,35.30
2018-03-23T02:37:08.793Z,32.30
2018-03-23T02:39:37.061Z,34.67
2018-03-23T02:42:05.351Z,35.57
2018-03-23T02:44:33.628Z,38.03
2018-03-23T02:47:01.891Z,34.77
2018-03-23T02:49:30.164Z,31.80
2018-03-23T02:51:58.443Z,32.30
2018-03-23T02:54:26.697Z,29.40
2018-03-23T02:56:54.972Z,34.60
2018-03-23T02:59:23.242Z,33.80
2018-03-23T03:01:52.286Z,30.53
2018-03-23T03:04:20.541Z,34.60
2018-03-23T03:06:48.824Z,32.13
2018-03-23T03:09:17.092Z,30.40
2018-03-23T03:11:45.376Z,34.67
2018-03-23T03:14:13.651Z,29.97
2018-03-23T03:16:41.921Z,30.40
2018-03-23T03:19:10.178Z,29.53
2018-03-23T03:21:38.449Z,24.07
2018-03-23T03:24:06.713Z,33.00
2018-03-23T03:26:35.736Z,29.90
2018-03-23T03:29:04.010Z,23.27
2018-03-23T03:31:32.265Z,24.50
2018-03-23T03:34:01.297Z,35.50
2018-03-23T03:36:29.548Z,34.60
2018-03-23T03:38:57.859Z,31.90
2018-03-23T03:41:26.125Z,24.90
2018-03-23T03:43:54.417Z,33.23
2018-03-23T03:46:22.682Z,28.93
2018-03-23T03:48:50.942Z,33.53
2018-03-23T03:51:19.225Z,30.27
2018-03-23T03:53:47.507Z,35.00
2018-03-23T03:56:15.795Z,32.20
2018-03-23T03:58:44.049Z,36.20
2018-03-23T04:01:12.339Z,35.33
2018-03-23T04:03:40.615Z,33.90
2018-03-23T04:06:08.881Z,41.37
2018-03-23T04:08:37.158Z,38.50
2018-03-23T04:11:05.440Z,38.30
2018-03-23T04:13:33.707Z,29.80
2018-03-23T04:16:01.976Z,33.97
2018-03-23T04:18:30.280Z,34.83
2018-03-23T04:20:58.548Z,35.80
2018-03-23T04:23:26.830Z,35.70
2018-03-23T04:25:55.082Z,34.47
2018-03-23T04:28:23.346Z,37.93
2018-03-23T04:30:51.619Z,31.37
2018-03-23T04:33:19.888Z,31.90
2018-03-23T04:35:48.177Z,32.13
2018-03-23T04:38:16.445Z,29.10
2018-03-23T04:40:45.488Z,36.50
2018-03-23T04:43:13.757Z,38.77
2018-03-23T04:45:42.019Z,34.13
2018-03-23T04:48:10.287Z,35.60
2018-03-23T04:50:38.556Z,31.53
2018-03-23T04:53:06.859Z,30.13
2018-03-23T04:55:35.158Z,31.60
2018-03-23T04:58:03.413Z,33.30
2018-03-23T05:00:31.712Z,35.40
2018-03-23T05:03:01.530Z,35.57
2018-03-23T05:05:30.575Z,35.40
2018-03-23T05:07:58.866Z,31.90
2018-03-23T05:10:27.145Z,28.17
2018-03-23T05:12:55.401Z,31.03
2018-03-23T05:15:23.669Z,31.27
2018-03-23T05:17:51.944Z,26.63
2018-03-23T05:20:20.206Z,23.60
2018-03-23T05:22:49.268Z,30.50
2018-03-23T05:25:17.538Z,31.63
2018-03-23T05:27:45.815Z,31.53
2018-03-23T05:30:14.179Z,32.90
2018-03-23T05:32:42.432Z,34.53
2018-03-23T05:35:10.713Z,31.10
2018-03-23T05:37:38.975Z,31.10
2018-03-23T05:40:07.238Z,34.27
2018-03-23T05:42:35.516Z,37.93
2018-03-23T05:45:03.792Z,34.87
2018-03-23T05:47:32.056Z,38.17
2018-03-23T05:50:01.103Z,32.27
2018-03-23T05:52:29.360Z,34.10
2018-03-23T05:54:58.900Z,36.00
2018-03-23T05:57:27.168Z,34.47
2018-03-23T05:59:55.476Z,31.10
2018-03-23T06:02:23.740Z,37.57
2018-03-23T06:04:52.015Z,28.43
2018-03-23T06:07:21.818Z,34.40
2018-03-23T06:09:50.109Z,31.97
2018-03-23T06:12:18.381Z,34.63
2018-03-23T06:14:46.669Z,35.40
2018-03-23T06:17:14.947Z,33.30
2018-03-23T06:19:43.998Z,29.40
2018-03-23T06:22:12.278Z,33.37
2018-03-23T06:24:40.548Z,31.33
2018-03-23T06:27:08.863Z,37.60
2018-03-23T06:29:37.141Z,29.60
2018-03-23T06:32:05.493Z,32.47
2018-03-23T06:34:33.780Z,30.50
2018-03-23T06:37:02.284Z,33.03
2018-03-23T06:39:30.927Z,32.27
2018-03-23T06:41:59.203Z,29.10
2018-03-23T06:44:27.564Z,34.03
2018-03-23T06:46:55.842Z,28.30
2018-03-23T06:49:24.142Z,34.37
2018-03-23T06:51:52.428Z,21.73
2018-03-23T06:54:22.201Z,26.17
2018-03-23T06:56:50.468Z,32.17
2018-03-23T06:59:18.722Z,29.90
2018-03-23T07:01:47.829Z,14.60
2018-03-23T07:04:16.094Z,32.63
2018-03-23T07:06:45.125Z,29.93
2018-03-23T07:09:13.405Z,26.80
2018-03-23T07:11:41.677Z,32.23
2018-03-23T07:14:09.950Z,29.17
2018-03-23T07:16:38.249Z,24.97
2018-03-23T07:19:06.503Z,31.37
2018-03-23T07:21:34.803Z,31.00
2018-03-23T07:24:03.110Z,26.83
2018-03-23T07:26:31.385Z,28.40
2018-03-23T07:28:59.654Z,33.10
2018-03-23T07:31:27.946Z,28.87
2018-03-23T07:33:56.990Z,28.53
2018-03-23T07:36:25.283Z,26.93
2018-03-23T07:38:53.575Z,27.50
2018-03-23T07:41:21.855Z,21.60
2018-03-23T07:43:50.221Z,32.07
2018-03-23T07:46:18.486Z,26.90
2018-03-23T07:48:46.775Z,32.20
2018-03-23T07:51:15.408Z,22.80
2018-03-23T07:53:43.735Z,28.50
2018-03-23T07:56:11.991Z,26.97
2018-03-23T07:58:40.329Z,21.07
2018-03-23T08:01:09.411Z,22.27
2018-03-23T08:03:37.698Z,24.60
2018-03-23T08:06:06.764Z,21.83
2018-03-23T08:08:36.544Z,22.60
2018-03-23T08:11:04.841Z,23.77
2018-03-23T08:13:33.198Z,23.37
2018-03-23T08:16:01.464Z,21.63
2018-03-23T08:18:29.752Z,29.03
2018-03-23T08:20:58.032Z,17.90
2018-03-23T08:23:26.311Z,29.27
2018-03-23T08:25:54.573Z,23.80
2018-03-23T08:28:22.846Z,30.93
2018-03-23T08:30:51.145Z,19.30
2018-03-23T08:33:19.457Z,24.93
2018-03-23T08:35:48.494Z,26.43
2018-03-23T08:38:16.781Z,28.53
2018-03-23T08:40:45.164Z,28.40
2018-03-23T08:43:13.444Z,30.23
2018-03-23T08:45:41.732Z,28.57
2018-03-23T08:48:10.011Z,22.90
2018-03-23T08:50:38.380Z,17.33
2018-03-23T08:53:06.694Z,20.10
2018-03-23T08:55:36.843Z,22.40
2018-03-23T08:58:05.208Z,23.40
2018-03-23T09:00:33.491Z,14.33
2018-03-23T09:03:01.757Z,23.27
2018-03-23T09:05:30.050Z,22.70
2018-03-23T09:07:58.356Z,26.30
2018-03-23T09:10:27.424Z,20.97
2018-03-23T09:12:55.694Z,7.40
2018-03-23T09:15:24.026Z,20.60
2018-03-23T09:17:52.287Z,24.40
2018-03-23T09:20:20.556Z,22.33
2018-03-23T09:22:49.600Z,15.97
2018-03-23T09:25:18.661Z,16.60
2018-03-23T09:27:46.960Z,14.43
2018-03-23T09:30:15.236Z,20.57
2018-03-23T09:32:43.632Z,16.70
2018-03-23T09:35:12.823Z,18.43
2018-03-23T09:37:41.126Z,22.57
2018-03-23T09:40:09.445Z,11.40
2018-03-23T09:42:38.487Z,22.20
2018-03-23T09:45:06.763Z,18.30
2018-03-23T09:47:35.049Z,15.17
2018-03-23T09:50:03.456Z,17.73
2018-03-23T09:52:31.732Z,20.77
2018-03-23T09:55:00.007Z,15.63
2018-03-23T09:57:28.260Z,18.43
2018-03-23T09:59:57.995Z,13.40
2018-03-23T10:02:26.293Z,20.10
2018-03-23T10:04:54.556Z,19.50
2018-03-23T10:07:22.926Z,15.20
2018-03-23T10:09:51.456Z,20.07
2018-03-23T10:12:21.301Z,5.17
2018-03-23T10:14:49.653Z,6.13
2018-03-23T10:17:17.991Z,6.63
2018-03-23T10:19:46.270Z,16.20
2018-03-23T10:22:15.451Z,18.00
2018-03-23T10:24:43.726Z,16.53
2018-03-23T10:27:12.018Z,7.37
2018-03-23T10:29:40.292Z,12.90
2018-03-23T10:32:08.675Z,16.40
2018-03-23T10:34:37.008Z,16.80
2018-03-23T10:37:05.316Z,13.33
2018-03-23T10:39:33.584Z,13.90
2018-03-23T10:42:02.677Z,15.37
2018-03-23T10:44:30.941Z,16.23
2018-03-23T10:46:59.267Z,11.67
2018-03-23T10:49:28.329Z,5.63
2018-03-23T10:51:56.592Z,8.87
2018-03-23T10:54:24.859Z,15.30
2018-03-23T10:56:53.119Z,12.87
2018-03-23T10:59:21.423Z,9.93
2018-03-23T11:01:55.453Z,11.47
2018-03-23T11:04:23.719Z,11.90
2018-03-23T11:06:52.048Z,15.30
2018-03-23T11:09:21.088Z,10.63
2018-03-23T11:11:49.422Z,16.20
2018-03-23T11:14:17.715Z,15.43
2018-03-23T11:16:45.997Z,16.67
2018-03-23T11:19:14.301Z,16.30
2018-03-23T11:21:42.587Z,9.90
2018-03-23T11:24:10.953Z,11.80
2018-03-23T11:26:39.366Z,11.00
2018-03-23T11:29:07.735Z,16.77
2018-03-23T11:31:36.016Z,14.77
2018-03-23T11:34:04.330Z,12.60
2018-03-23T11:36:33.356Z,14.33
2018-03-23T11:39:01.656Z,18.00
2018-03-23T11:41:30.875Z,12.37
2018-03-23T11:43:59.147Z,18.37
2018-03-23T11:46:27.494Z,16.40
2018-03-23T11:48:55.861Z,12.33
2018-03-23T11:51:24.165Z,14.93
2018-03-23T11:53:52.438Z,15.23
2018-03-23T11:56:20.713Z,18.50
2018-03-23T11:58:49.022Z,16.77
2018-03-23T12:01:18.051Z,16.90
2018-03-23T12:03:46.442Z,17.40
2018-03-23T12:06:14.743Z,10.83
2018-03-23T12:08:43.068Z,18.17
2018-03-23T12:11:11.369Z,13.17
2018-03-23T12:13:39.649Z,10.20
2018-03-23T12:16:07.949Z,15.53
2018-03-23T12:18:36.258Z,9.83
2018-03-23T12:21:04.570Z,16.60
2018-03-23T12:23:32.858Z,16.87
2018-03-23T12:26:01.165Z,13.10
2018-03-23T12:28:29.445Z,12.07
2018-03-23T12:30:58.426Z,11.07
2018-03-23T12:33:26.729Z,15.07
2018-03-23T12:35:55.923Z,7.50
2018-03-23T12:38:24.953Z,12.80
2018-03-23T12:40:53.219Z,16.13
2018-03-23T12:43:22.347Z,13.60
2018-03-23T12:45:50.617Z,11.73
2018-03-23T12:48:18.877Z,14.13
2018-03-23T12:50:47.285Z,13.47
2018-03-23T12:53:15.571Z,17.17
2018-03-23T12:55:43.838Z,16.10
2018-03-23T12:58:12.211Z,13.63
2018-03-23T13:00:40.483Z,16.07
2018-03-23T13:03:08.783Z,13.67
2018-03-23T13:05:37.097Z,8.30
2018-03-23T13:08:05.449Z,13.47
2018-03-23T13:10:34.509Z,9.30
2018-03-23T13:13:02.782Z,15.90
2018-03-23T13:15:31.065Z,17.43
2018-03-23T13:17:59.366Z,15.37
2018-03-23T13:20:27.715Z,13.27
2018-03-23T13:22:56.092Z,16.30
2018-03-23T13:25:24.396Z,15.73
2018-03-23T13:27:53.451Z,16.20
2018-03-23T13:30:21.755Z,13.37
2018-03-23T13:32:50.024Z,15.33
2018-03-23T13:35:18.300Z,15.70
2018-03-23T13:37:46.724Z,15.30
2018-03-23T13:40:15.756Z,11.33
2018-03-23T13:42:45.027Z,15.20
2018-03-23T13:45:13.447Z,14.20
2018-03-23T13:47:41.754Z,10.63
2018-03-23T13:50:10.876Z,13.40
2018-03-23T13:52:40.019Z,12.87
2018-03-23T13:55:09.067Z,11.80
2018-03-23T14:00:18.581Z,14.90
2018-03-23T14:02:46.882Z,12.40
2018-03-23T14:05:15.955Z,14.13
2018-03-23T14:07:44.232Z,9.57
2018-03-23T14:10:12.564Z,10.97
2018-03-23T14:12:40.822Z,12.20
2018-03-23T14:15:09.109Z,13.67
2018-03-23T14:17:37.392Z,13.07
2018-03-23T14:20:05.653Z,15.57
2018-03-23T14:22:33.931Z,15.30
2018-03-23T14:25:02.958Z,17.60
2018-03-23T14:27:31.239Z,16.40
2018-03-23T14:29:59.580Z,18.10
2018-03-23T14:32:27.851Z,17.80
2018-03-23T14:34:56.930Z,17.87
2018-03-23T14:37:25.243Z,17.13
2018-03-23T14:39:53.503Z,12.03
2018-03-23T14:42:21.776Z,17.73
2018-03-23T14:44:50.826Z,17.83
2018-03-23T14:47:19.094Z,18.40
2018-03-23T14:49:47.371Z,19.83
2018-03-23T14:52:15.672Z,16.87
2018-03-23T14:54:43.976Z,19.47
2018-03-23T14:57:12.254Z,20.17
2018-03-23T14:59:41.292Z,23.13
2018-03-23T15:02:09.575Z,9.90
2018-03-23T15:04:37.835Z,15.80
2018-03-23T15:07:06.120Z,14.50
2018-03-23T15:09:34.379Z,15.50
2018-03-23T15:12:02.669Z,9.63
2018-03-23T15:14:30.916Z,13.50
2018-03-23T15:16:59.242Z,9.60
2018-03-23T15:19:27.477Z,17.57
2018-03-23T15:21:55.810Z,14.20
2018-03-23T15:24:24.071Z,14.90
2018-03-23T15:26:52.345Z,17.87
2018-03-23T15:29:20.665Z,19.67
2018-03-23T15:31:49.741Z,13.87
2018-03-23T15:34:18.774Z,18.63
2018-03-23T15:36:47.064Z,16.37
2018-03-23T15:39:15.338Z,19.80
2018-03-23T15:41:43.613Z,17.50
2018-03-23T15:44:11.907Z,24.30
2018-03-23T15:46:40.774Z,17.90
2018-03-23T15:49:09.070Z,19.73
2018-03-23T15:51:37.469Z,18.83
2018-03-23T15:54:05.743Z,18.23
2018-03-23T15:56:34.072Z,16.20
2018-03-23T15:59:02.353Z,20.00
2018-03-23T16:01:30.659Z,23.00
2018-03-23T16:03:58.936Z,23.20
2018-03-23T16:06:27.265Z,13.30
2018-03-23T16:08:56.356Z,15.30
2018-03-23T16:11:25.422Z,17.57
2018-03-23T16:13:53.697Z,23.60
2018-03-23T16:16:22.749Z,16.57
2018-03-23T16:18:51.026Z,18.03
2018-03-23T16:21:19.597Z,12.03
2018-03-23T16:23:47.864Z,23.80
2018-03-23T16:26:16.195Z,25.10
2018-03-23T16:28:44.466Z,17.67
2018-03-23T16:31:12.736Z,20.77
2018-03-23T16:33:41.835Z,10.80
2018-03-23T16:36:10.308Z,8.90
2018-03-23T16:38:38.577Z,20.80
2018-03-23T16:41:06.852Z,23.00
2018-03-23T16:43:35.143Z,20.53
2018-03-23T16:46:03.480Z,17.53
2018-03-23T16:48:31.751Z,15.60
2018-03-23T16:51:00.028Z,19.50
2018-03-23T16:53:28.370Z,13.40
2018-03-23T16:55:56.638Z,19.30
2018-03-23T16:58:24.938Z,18.10
2018-03-23T17:00:54.019Z,17.17
2018-03-23T17:03:22.323Z,15.13
2018-03-23T17:05:50.556Z,26.70
2018-03-23T17:08:18.745Z,21.27
2018-03-23T17:10:47.726Z,21.50
2018-03-23T17:13:16.718Z,20.70
2018-03-23T17:15:44.947Z,24.37
2018-03-23T17:18:13.231Z,20.70
2018-03-23T17:20:41.531Z,14.20
2018-03-23T17:23:09.944Z,6.87
2018-03-23T17:25:38.225Z,22.90
2018-03-23T17:28:07.249Z,18.30
2018-03-23T17:30:35.559Z,23.00
2018-03-23T17:33:03.818Z,24.23
2018-03-23T17:35:32.098Z,23.80
2018-03-23T17:38:00.364Z,22.13
2018-03-23T17:40:28.622Z,13.27
2018-03-23T17:42:56.939Z,14.20
2018-03-23T17:45:25.222Z,24.17
2018-03-23T17:47:53.507Z,24.40
2018-03-23T17:50:21.762Z,25.97
2018-03-23T17:52:51.074Z,12.43
2018-03-23T17:55:19.756Z,19.50
2018-03-23T17:57:47.997Z,6.30
2018-03-23T18:00:16.285Z,17.13
2018-03-23T18:02:44.598Z,19.27
2018-03-23T18:05:12.893Z,19.33
2018-03-23T18:07:41.913Z,23.17
2018-03-23T18:10:10.230Z,23.80
2018-03-23T18:12:38.513Z,22.17
2018-03-23T18:15:06.771Z,21.40
2018-03-23T18:17:35.068Z,12.00
2018-03-23T18:20:03.322Z,19.07
2018-03-23T18:22:31.576Z,19.07
2018-03-23T18:24:59.861Z,22.30
2018-03-23T18:27:29.686Z,17.20
2018-03-23T18:29:58.009Z,21.53
2018-03-23T18:32:26.270Z,17.60
2018-03-23T18:34:54.528Z,12.90
2018-03-23T18:37:22.776Z,19.47
2018-03-23T18:39:51.052Z,17.87
2018-03-23T18:42:19.335Z,22.47
2018-03-23T18:44:47.640Z,20.83
2018-03-23T18:47:15.895Z,21.73
2018-03-23T18:49:44.150Z,9.87
2018-03-23T18:52:12.415Z,20.50
2018-03-23T18:54:41.441Z,19.63
2018-03-23T18:57:09.703Z,19.20
2018-03-23T18:59:37.959Z,21.40
2018-03-23T19:02:07.001Z,24.53
2018-03-23T19:04:35.274Z,22.00
2018-03-23T19:07:03.559Z,22.27
2018-03-23T19:09:32.612Z,22.80
2018-03-23T19:12:01.744Z,18.70
2018-03-23T19:14:30.060Z,24.50
2018-03-23T19:16:58.330Z,24.10
2018-03-23T19:19:26.673Z,19.70
2018-03-23T19:21:54.930Z,21.97
2018-03-23T19:24:25.985Z,22.70
2018-03-23T19:26:54.245Z,24.23
2018-03-23T19:29:22.542Z,23.20
2018-03-23T19:31:51.542Z,26.73
2018-03-23T19:34:19.874Z,17.03
2018-03-23T19:36:48.154Z,24.23
2018-03-23T19:39:17.202Z,21.20
2018-03-23T19:41:45.449Z,25.47
2018-03-23T19:44:13.717Z,16.17
2018-03-23T19:46:41.998Z,23.40
2018-03-23T19:49:10.324Z,26.50
2018-03-23T19:51:38.568Z,27.40
2018-03-23T19:54:06.830Z,19.93
2018-03-23T19:56:35.148Z,21.53
2018-03-23T19:59:04.157Z,13.50
2018-03-23T20:01:33.205Z,25.73
2018-03-23T20:04:01.471Z,18.27
2018-03-23T20:06:29.736Z,22.77
2018-03-23T20:08:58.000Z,21.90
2018-03-23T20:11:26.265Z,25.90
2018-03-23T20:14:00.902Z,24.87
2018-03-23T20:16:29.440Z,24.57
2018-03-23T20:18:57.697Z,26.70
2018-03-23T20:21:25.966Z,24.13
2018-03-23T20:24:03.572Z,19.97
2018-03-23T20:26:31.859Z,27.67
2018-03-23T20:29:00.139Z,24.83
2018-03-23T20:31:34.059Z,22.50
2018-03-23T20:34:02.323Z,28.17
2018-03-23T20:36:30.590Z,27.60
2018-03-23T20:38:58.868Z,26.53
2018-03-23T20:41:27.137Z,15.03
2018-03-23T20:43:55.400Z,23.57
2018-03-23T20:46:23.666Z,24.20
2018-03-23T20:48:51.964Z,26.67
2018-03-23T20:51:21.347Z,30.77
2018-03-23T20:53:49.639Z,23.53
2018-03-23T20:56:17.926Z,28.97
2018-03-23T20:58:46.214Z,25.90
2018-03-23T21:01:15.997Z,14.47
2018-03-23T21:03:44.254Z,25.57
2018-03-23T21:06:12.524Z,26.50
2018-03-23T21:08:40.802Z,30.50
2018-03-23T21:11:09.065Z,14.63
2018-03-23T21:13:37.377Z,18.60
2018-03-23T21:16:05.641Z,28.10
2018-03-23T21:18:33.903Z,27.43
2018-03-23T21:21:02.163Z,23.33
2018-03-23T21:23:31.189Z,28.33
2018-03-23T21:25:59.448Z,25.20
2018-03-23T21:28:27.703Z,31.00
2018-03-23T21:30:56.733Z,27.60
2018-03-23T21:33:25.027Z,26.10
2018-03-23T21:35:54.071Z,25.93
2018-03-23T21:38:23.116Z,27.07
2018-03-23T21:40:51.392Z,26.20
2018-03-23T21:43:19.654Z,29.33
2018-03-23T21:45:47.920Z,25.77
2018-03-23T21:48:16.375Z,29.67
2018-03-23T21:50:45.484Z,27.50
2018-03-23T21:53:13.767Z,24.00
2018-03-23T21:55:42.064Z,32.13
2018-03-23T21:58:10.374Z,27.50
2018-03-23T22:00:38.630Z,30.80
2018-03-23T22:03:06.895Z,28.20
2018-03-23T22:05:35.159Z,27.93
2018-03-23T22:08:03.418Z,29.63
2018-03-23T22:10:31.718Z,29.27
2018-03-23T22:13:00.017Z,32.90
2018-03-23T22:15:28.275Z,27.60
2018-03-23T22:17:56.603Z,31.13
2018-03-23T22:20:25.639Z,27.00
2018-03-23T22:22:53.932Z,31.40
2018-03-23T22:25:22.186Z,29.23
2018-03-23T22:27:50.449Z,28.00
2018-03-23T22:30:18.714Z,29.77
2018-03-23T22:32:47.732Z,27.40
2018-03-23T22:35:15.994Z,27.80
2018-03-23T22:37:44.252Z,27.20
2018-03-23T22:40:13.296Z,30.90
2018-03-23T22:42:41.610Z,28.23
2018-03-23T22:45:09.871Z,31.23
2018-03-23T22:47:38.932Z,33.80
2018-03-23T22:50:07.219Z,29.90
2018-03-23T22:52:35.482Z,29.17
2018-03-23T22:55:03.752Z,32.20
2018-03-23T22:57:32.030Z,32.97
2018-03-23T23:00:00.303Z,32.43
2018-03-23T23:02:28.571Z,30.80
2018-03-23T23:04:56.843Z,32.37
2018-03-23T23:07:25.114Z,33.27
2018-03-23T23:09:53.414Z,31.57
2018-03-23T23:12:21.681Z,31.77
2018-03-23T23:14:49.974Z,32.50
2018-03-23T23:17:19.053Z,34.37
2018-03-23T23:19:48.178Z,30.10
2018-03-23T23:22:16.437Z,28.47
2018-03-23T23:24:44.703Z,28.57
2018-03-23T23:27:13.527Z,26.17
2018-03-23T23:29:42.559Z,28.60
2018-03-23T23:32:11.638Z,28.47
2018-03-23T23:34:40.682Z,25.57
2018-03-23T23:37:10.600Z,27.00
2018-03-23T23:39:38.861Z,27.90
2018-03-23T23:42:07.149Z,29.20
2018-03-23T23:44:36.055Z,27.77
2018-03-23T23:47:04.328Z,26.30
2018-03-23T23:49:33.718Z,24.23
2018-03-23T23:52:03.443Z,24.67
2018-03-23T23:54:34.779Z,25.47
2018-03-23T23:57:03.087Z,24.87
2018-03-23T23:59:32.082Z,23.97
